sensor_id;sensor_type;location;lat;lon;timestamp;pressure;altitude;pressure_sealevel;temperature;humidity
70968;BME280;58629;48.808;8.820;2023-02-01T00:01:54;97777.25;;;3.47;92.51
70968;BME280;58629;48.808;8.820;2023-02-01T00:04:20;97775.28;;;3.40;92.79
70968;BME280;58629;48.808;8.820;2023-02-01T00:06:45;97769.63;;;3.38;93.03
70968;BME280;58629;48.808;8.820;2023-02-01T00:09:13;97775.53;;;3.35;93.89
70968;BME280;58629;48.808;8.820;2023-02-01T00:11:38;97770.28;;;3.35;93.58
70968;BME280;58629;48.808;8.820;2023-02-01T00:14:03;97767.59;;;3.32;93.97
70968;BME280;58629;48.808;8.820;2023-02-01T00:16:30;97768.44;;;3.36;94.39
70968;BME280;58629;48.808;8.820;2023-02-01T00:19:08;97759.47;;;3.37;93.29
70968;BME280;58629;48.808;8.820;2023-02-01T00:21:34;97763.13;;;3.32;93.43
70968;BME280;58629;48.808;8.820;2023-02-01T00:24:00;97764.63;;;3.33;94.05
70968;BME280;58629;48.808;8.820;2023-02-01T00:26:34;97759.00;;;3.31;93.86
70968;BME280;58629;48.808;8.820;2023-02-01T00:29:01;97753.34;;;3.29;94.15
70968;BME280;58629;48.808;8.820;2023-02-01T00:31:28;97748.75;;;3.42;93.03
70968;BME280;58629;48.808;8.820;2023-02-01T00:33:53;97751.31;;;3.38;93.16
70968;BME280;58629;48.808;8.820;2023-02-01T00:36:20;97747.50;;;3.36;93.44
70968;BME280;58629;48.808;8.820;2023-02-01T00:38:46;97745.53;;;3.48;92.25
70968;BME280;58629;48.808;8.820;2023-02-01T00:41:18;97746.66;;;3.51;91.80
70968;BME280;58629;48.808;8.820;2023-02-01T00:43:48;97748.06;;;3.64;91.28
70968;BME280;58629;48.808;8.820;2023-02-01T00:46:15;97750.47;;;3.53;91.63
70968;BME280;58629;48.808;8.820;2023-02-01T00:48:41;97754.59;;;3.54;91.43
70968;BME280;58629;48.808;8.820;2023-02-01T00:51:10;97747.78;;;3.50;92.18
70968;BME280;58629;48.808;8.820;2023-02-01T00:53:36;97744.00;;;3.47;92.40
70968;BME280;58629;48.808;8.820;2023-02-01T00:56:02;97744.00;;;3.47;93.01
70968;BME280;58629;48.808;8.820;2023-02-01T00:58:27;97751.44;;;3.45;92.76
70968;BME280;58629;48.808;8.820;2023-02-01T01:01:16;97764.38;;;3.38;93.28
70968;BME280;58629;48.808;8.820;2023-02-01T01:03:45;97749.34;;;3.35;93.19
70968;BME280;58629;48.808;8.820;2023-02-01T01:06:14;97757.50;;;3.30;92.84
70968;BME280;58629;48.808;8.820;2023-02-01T01:08:41;97752.25;;;3.30;93.65
70968;BME280;58629;48.808;8.820;2023-02-01T01:11:12;97736.00;;;3.40;92.85
70968;BME280;58629;48.808;8.820;2023-02-01T01:13:38;97729.13;;;3.32;92.66
70968;BME280;58629;48.808;8.820;2023-02-01T01:16:05;97729.31;;;3.24;93.13
70968;BME280;58629;48.808;8.820;2023-02-01T01:18:32;97723.66;;;3.22;93.76
70968;BME280;58629;48.808;8.820;2023-02-01T01:20:57;97728.41;;;3.16;94.01
70968;BME280;58629;48.808;8.820;2023-02-01T01:23:23;97726.88;;;3.15;94.07
70968;BME280;58629;48.808;8.820;2023-02-01T01:25:48;97721.22;;;3.13;94.17
70968;BME280;58629;48.808;8.820;2023-02-01T01:28:16;97718.28;;;3.15;94.86
70968;BME280;58629;48.808;8.820;2023-02-01T01:30:41;97724.19;;;3.12;94.33
70968;BME280;58629;48.808;8.820;2023-02-01T01:33:07;97723.78;;;3.10;94.52
70968;BME280;58629;48.808;8.820;2023-02-01T01:35:33;97727.91;;;3.11;94.60
70968;BME280;58629;48.808;8.820;2023-02-01T01:37:59;97729.00;;;3.10;95.13
70968;BME280;58629;48.808;8.820;2023-02-01T01:40:25;97740.31;;;3.14;94.71
70968;BME280;58629;48.808;8.820;2023-02-01T01:42:51;97731.69;;;3.13;95.15
70968;BME280;58629;48.808;8.820;2023-02-01T01:45:27;97733.47;;;3.09;94.95
70968;BME280;58629;48.808;8.820;2023-02-01T01:47:58;97729.16;;;3.17;94.72
70968;BME280;58629;48.808;8.820;2023-02-01T01:50:30;97718.53;;;3.10;94.17
70968;BME280;58629;48.808;8.820;2023-02-01T01:52:59;97721.09;;;3.06;94.53
70968;BME280;58629;48.808;8.820;2023-02-01T01:55:28;97715.50;;;3.08;94.49
70968;BME280;58629;48.808;8.820;2023-02-01T01:58:00;97716.75;;;3.14;94.09
70968;BME280;58629;48.808;8.820;2023-02-01T02:00:27;97714.69;;;3.23;93.40
70968;BME280;58629;48.808;8.820;2023-02-01T02:02:58;97707.06;;;3.14;93.93
70968;BME280;58629;48.808;8.820;2023-02-01T02:05:24;97709.19;;;3.09;94.58
70968;BME280;58629;48.808;8.820;2023-02-01T02:07:52;97705.81;;;3.08;94.17
70968;BME280;58629;48.808;8.820;2023-02-01T02:10:18;97716.28;;;3.08;94.35
70968;BME280;58629;48.808;8.820;2023-02-01T02:12:46;97717.28;;;3.04;94.31
70968;BME280;58629;48.808;8.820;2023-02-01T02:15:14;97716.19;;;3.05;94.03
70968;BME280;58629;48.808;8.820;2023-02-01T02:18:07;97708.41;;;3.08;93.86
70968;BME280;58629;48.808;8.820;2023-02-01T02:23:39;97699.63;;;3.16;94.12
70968;BME280;58629;48.808;8.820;2023-02-01T02:34:31;97686.31;;;3.25;94.38
70968;BME280;58629;48.808;8.820;2023-02-01T02:40:15;97690.25;;;3.15;94.83
70968;BME280;58629;48.808;8.820;2023-02-01T02:46:01;97688.31;;;3.12;96.26
70968;BME280;58629;48.808;8.820;2023-02-01T02:49:05;97685.34;;;3.14;96.02
70968;BME280;58629;48.808;8.820;2023-02-01T02:51:38;97680.94;;;3.18;95.73
70968;BME280;58629;48.808;8.820;2023-02-01T02:54:28;97686.59;;;3.20;95.47
70968;BME280;58629;48.808;8.820;2023-02-01T02:57:36;97691.06;;;3.19;95.85
70968;BME280;58629;48.808;8.820;2023-02-01T03:00:28;97691.47;;;3.21;95.47
70968;BME280;58629;48.808;8.820;2023-02-01T03:03:12;97686.59;;;3.20;95.66
70968;BME280;58629;48.808;8.820;2023-02-01T03:05:56;97695.56;;;3.19;95.07
70968;BME280;58629;48.808;8.820;2023-02-01T03:08:26;97690.34;;;3.19;95.52
70968;BME280;58629;48.808;8.820;2023-02-01T03:11:04;97687.44;;;3.24;95.16
70968;BME280;58629;48.808;8.820;2023-02-01T03:16:16;97682.59;;;3.26;95.03
70968;BME280;58629;48.808;8.820;2023-02-01T03:19:06;97679.38;;;3.32;94.66
70968;BME280;58629;48.808;8.820;2023-02-01T03:21:42;97677.50;;;3.33;94.56
70968;BME280;58629;48.808;8.820;2023-02-01T03:24:16;97656.09;;;3.27;94.89
70968;BME280;58629;48.808;8.820;2023-02-01T03:26:47;97660.22;;;3.28;93.77
70968;BME280;58629;48.808;8.820;2023-02-01T03:29:18;97652.03;;;3.30;93.77
70968;BME280;58629;48.808;8.820;2023-02-01T03:31:44;97657.25;;;3.30;94.20
70968;BME280;58629;48.808;8.820;2023-02-01T03:34:11;97668.56;;;3.34;94.23
70968;BME280;58629;48.808;8.820;2023-02-01T03:36:41;97666.28;;;3.32;93.93
70968;BME280;58629;48.808;8.820;2023-02-01T03:41:57;97656.66;;;3.36;93.41
70968;BME280;58629;48.808;8.820;2023-02-01T03:44:32;97645.81;;;3.38;93.62
70968;BME280;58629;48.808;8.820;2023-02-01T03:47:04;97651.81;;;3.38;93.92
70968;BME280;58629;48.808;8.820;2023-02-01T03:49:36;97637.66;;;3.43;93.60
70968;BME280;58629;48.808;8.820;2023-02-01T03:52:06;97630.94;;;3.42;93.68
70968;BME280;58629;48.808;8.820;2023-02-01T03:54:32;97635.81;;;3.43;93.99
70968;BME280;58629;48.808;8.820;2023-02-01T03:57:01;97637.25;;;3.41;93.40
70968;BME280;58629;48.808;8.820;2023-02-01T03:59:30;97636.16;;;3.42;93.82
70968;BME280;58629;48.808;8.820;2023-02-01T04:01:55;97632.44;;;3.43;93.92
70968;BME280;58629;48.808;8.820;2023-02-01T04:04:21;97638.44;;;3.43;93.61
70968;BME280;58629;48.808;8.820;2023-02-01T04:06:47;97653.06;;;3.44;92.80
70968;BME280;58629;48.808;8.820;2023-02-01T04:09:12;97650.19;;;3.53;91.28
70968;BME280;58629;48.808;8.820;2023-02-01T04:11:38;97648.00;;;3.55;90.89
70968;BME280;58629;48.808;8.820;2023-02-01T04:14:03;97659.66;;;3.58;90.77
70968;BME280;58629;48.808;8.820;2023-02-01T04:16:30;97652.97;;;3.60;91.25
70968;BME280;58629;48.808;8.820;2023-02-01T04:18:58;97634.38;;;3.69;90.48
70968;BME280;58629;48.808;8.820;2023-02-01T04:21:27;97625.03;;;3.68;90.91
70968;BME280;58629;48.808;8.820;2023-02-01T04:23:53;97626.53;;;3.69;90.32
70968;BME280;58629;48.808;8.820;2023-02-01T04:26:19;97624.31;;;3.71;90.22
70968;BME280;58629;48.808;8.820;2023-02-01T04:28:46;97643.00;;;3.69;90.05
70968;BME280;58629;48.808;8.820;2023-02-01T04:31:15;97664.78;;;3.73;89.40
70968;BME280;58629;48.808;8.820;2023-02-01T04:33:41;97679.47;;;3.78;89.14
70968;BME280;58629;48.808;8.820;2023-02-01T04:36:06;97666.38;;;3.78;89.12
70968;BME280;58629;48.808;8.820;2023-02-01T04:38:31;97654.72;;;3.75;89.50
70968;BME280;58629;48.808;8.820;2023-02-01T04:40:57;97643.72;;;3.89;89.07
70968;BME280;58629;48.808;8.820;2023-02-01T04:43:23;97634.75;;;3.90;88.89
70968;BME280;58629;48.808;8.820;2023-02-01T04:45:49;97636.56;;;3.86;89.44
70968;BME280;58629;48.808;8.820;2023-02-01T04:48:16;97628.66;;;3.82;89.20
70968;BME280;58629;48.808;8.820;2023-02-01T04:50:46;97614.03;;;3.81;88.78
70968;BME280;58629;48.808;8.820;2023-02-01T04:53:14;97626.38;;;3.81;89.82
70968;BME280;58629;48.808;8.820;2023-02-01T04:55:40;97624.91;;;3.83;89.03
70968;BME280;58629;48.808;8.820;2023-02-01T04:58:06;97617.38;;;3.78;89.29
70968;BME280;58629;48.808;8.820;2023-02-01T05:00:31;97619.69;;;3.83;88.89
70968;BME280;58629;48.808;8.820;2023-02-01T05:02:56;97629.06;;;3.84;89.13
70968;BME280;58629;48.808;8.820;2023-02-01T05:05:22;97644.69;;;3.81;89.46
70968;BME280;58629;48.808;8.820;2023-02-01T05:07:47;97646.59;;;3.80;89.44
70968;BME280;58629;48.808;8.820;2023-02-01T05:10:12;97635.34;;;3.80;89.42
70968;BME280;58629;48.808;8.820;2023-02-01T05:12:41;97647.25;;;3.77;89.91
70968;BME280;58629;48.808;8.820;2023-02-01T05:15:28;97649.53;;;3.79;89.40
70968;BME280;58629;48.808;8.820;2023-02-01T05:17:56;97641.41;;;3.84;89.44
70968;BME280;58629;48.808;8.820;2023-02-01T05:20:21;97640.31;;;3.88;89.53
70968;BME280;58629;48.808;8.820;2023-02-01T05:22:47;97645.53;;;3.85;90.64
70968;BME280;58629;48.808;8.820;2023-02-01T05:25:12;97650.28;;;3.79;91.21
70968;BME280;58629;48.808;8.820;2023-02-01T05:27:37;97650.66;;;3.78;92.60
70968;BME280;58629;48.808;8.820;2023-02-01T05:30:04;97646.44;;;3.73;91.67
70968;BME280;58629;48.808;8.820;2023-02-01T05:32:32;97651.28;;;3.71;92.32
70968;BME280;58629;48.808;8.820;2023-02-01T05:34:57;97666.13;;;3.64;93.48
70968;BME280;58629;48.808;8.820;2023-02-01T05:37:23;97663.84;;;3.62;93.99
70968;BME280;58629;48.808;8.820;2023-02-01T05:39:48;97668.59;;;3.57;95.19
70968;BME280;58629;48.808;8.820;2023-02-01T05:42:13;97661.09;;;3.55;95.33
70968;BME280;58629;48.808;8.820;2023-02-01T05:44:39;97657.78;;;3.58;95.68
70968;BME280;58629;48.808;8.820;2023-02-01T05:47:04;97659.66;;;3.58;95.00
70968;BME280;58629;48.808;8.820;2023-02-01T05:49:29;97644.34;;;3.60;94.78
70968;BME280;58629;48.808;8.820;2023-02-01T05:51:55;97645.44;;;3.59;94.90
70968;BME280;58629;48.808;8.820;2023-02-01T05:54:20;97640.75;;;3.68;94.70
70968;BME280;58629;48.808;8.820;2023-02-01T05:56:45;97645.09;;;3.60;93.90
70968;BME280;58629;48.808;8.820;2023-02-01T05:59:13;97653.78;;;3.64;93.08
70968;BME280;58629;48.808;8.820;2023-02-01T06:01:38;97650.34;;;3.83;92.96
70968;BME280;58629;48.808;8.820;2023-02-01T06:04:03;97645.06;;;3.79;93.04
70968;BME280;58629;48.808;8.820;2023-02-01T06:06:29;97652.03;;;3.72;92.68
70968;BME280;58629;48.808;8.820;2023-02-01T06:08:54;97648.19;;;3.66;93.95
70968;BME280;58629;48.808;8.820;2023-02-01T06:11:19;97620.25;;;3.73;92.92
70968;BME280;58629;48.808;8.820;2023-02-01T06:13:44;97615.47;;;3.79;92.62
70968;BME280;58629;48.808;8.820;2023-02-01T06:16:10;97622.09;;;3.73;92.39
70968;BME280;58629;48.808;8.820;2023-02-01T06:18:35;97630.28;;;3.68;93.20
70968;BME280;58629;48.808;8.820;2023-02-01T06:21:01;97639.00;;;3.75;92.91
70968;BME280;58629;48.808;8.820;2023-02-01T06:23:28;97657.28;;;3.72;92.56
70968;BME280;58629;48.808;8.820;2023-02-01T06:26:05;97646.81;;;3.72;92.09
70968;BME280;58629;48.808;8.820;2023-02-01T06:28:32;97656.09;;;3.69;92.50
70968;BME280;58629;48.808;8.820;2023-02-01T06:30:57;97650.47;;;3.67;93.21
70968;BME280;58629;48.808;8.820;2023-02-01T06:33:27;97664.31;;;3.68;92.52
70968;BME280;58629;48.808;8.820;2023-02-01T06:35:59;97665.81;;;3.69;92.17
70968;BME280;58629;48.808;8.820;2023-02-01T06:38:25;97653.06;;;3.67;92.66
70968;BME280;58629;48.808;8.820;2023-02-01T06:40:55;97655.75;;;3.71;91.83
70968;BME280;58629;48.808;8.820;2023-02-01T06:43:24;97644.94;;;3.72;91.04
70968;BME280;58629;48.808;8.820;2023-02-01T06:45:50;97647.63;;;3.76;90.98
70968;BME280;58629;48.808;8.820;2023-02-01T06:48:16;97644.94;;;3.72;90.58
70968;BME280;58629;48.808;8.820;2023-02-01T06:50:41;97645.97;;;3.68;90.74
70968;BME280;58629;48.808;8.820;2023-02-01T06:53:11;97654.66;;;3.72;89.76
70968;BME280;58629;48.808;8.820;2023-02-01T06:55:37;97651.63;;;3.70;89.88
70968;BME280;58629;48.808;8.820;2023-02-01T06:58:04;97657.97;;;3.69;89.40
70968;BME280;58629;48.808;8.820;2023-02-01T07:00:30;97655.69;;;3.67;89.37
70968;BME280;58629;48.808;8.820;2023-02-01T07:02:57;97671.06;;;3.69;89.67
70968;BME280;58629;48.808;8.820;2023-02-01T07:05:24;97665.06;;;3.68;89.60
70968;BME280;58629;48.808;8.820;2023-02-01T07:07:49;97676.28;;;3.69;89.18
70968;BME280;58629;48.808;8.820;2023-02-01T07:10:14;97682.34;;;3.73;88.55
70968;BME280;58629;48.808;8.820;2023-02-01T07:12:40;97686.19;;;3.79;88.18
70968;BME280;58629;48.808;8.820;2023-02-01T07:15:06;97671.31;;;3.83;87.31
70968;BME280;58629;48.808;8.820;2023-02-01T07:17:31;97673.34;;;3.93;86.58
70968;BME280;58629;48.808;8.820;2023-02-01T07:19:59;97693.13;;;3.90;87.61
70968;BME280;58629;48.808;8.820;2023-02-01T07:22:28;97689.31;;;3.84;88.04
70968;BME280;58629;48.808;8.820;2023-02-01T07:24:54;97680.44;;;3.92;88.05
70968;BME280;58629;48.808;8.820;2023-02-01T07:27:19;97692.03;;;3.91;88.30
70968;BME280;58629;48.808;8.820;2023-02-01T07:29:45;97688.50;;;4.03;87.88
70968;BME280;58629;48.808;8.820;2023-02-01T07:32:10;97699.97;;;3.95;88.03
70968;BME280;58629;48.808;8.820;2023-02-01T07:34:35;97696.94;;;3.93;87.93
70968;BME280;58629;48.808;8.820;2023-02-01T07:37:01;97705.75;;;4.04;88.33
70968;BME280;58629;48.808;8.820;2023-02-01T07:39:26;97714.69;;;4.03;88.01
70968;BME280;58629;48.808;8.820;2023-02-01T07:41:53;97704.16;;;3.99;88.21
70968;BME280;58629;48.808;8.820;2023-02-01T07:44:19;97702.31;;;4.00;88.01
70968;BME280;58629;48.808;8.820;2023-02-01T07:46:47;97707.25;;;4.05;87.68
70968;BME280;58629;48.808;8.820;2023-02-01T07:49:13;97701.31;;;4.08;87.50
70968;BME280;58629;48.808;8.820;2023-02-01T07:51:38;97689.03;;;4.12;86.87
70968;BME280;58629;48.808;8.820;2023-02-01T07:54:06;97690.06;;;4.07;87.33
70968;BME280;58629;48.808;8.820;2023-02-01T07:56:32;97685.94;;;4.06;86.41
70968;BME280;58629;48.808;8.820;2023-02-01T07:58:57;97695.66;;;4.06;86.33
70968;BME280;58629;48.808;8.820;2023-02-01T08:01:26;97691.31;;;4.13;86.48
70968;BME280;58629;48.808;8.820;2023-02-01T08:03:52;97679.25;;;4.09;85.53
70968;BME280;58629;48.808;8.820;2023-02-01T08:06:18;97682.31;;;4.14;85.71
70968;BME280;58629;48.808;8.820;2023-02-01T08:08:48;97672.94;;;4.13;85.48
70968;BME280;58629;48.808;8.820;2023-02-01T08:11:14;97680.41;;;4.11;84.92
70968;BME280;58629;48.808;8.820;2023-02-01T08:13:40;97681.84;;;4.09;85.40
70968;BME280;58629;48.808;8.820;2023-02-01T08:16:07;97680.81;;;4.13;85.52
70968;BME280;58629;48.808;8.820;2023-02-01T08:18:36;97685.34;;;4.16;84.96
70968;BME280;58629;48.808;8.820;2023-02-01T08:21:10;97695.00;;;4.12;84.71
70968;BME280;58629;48.808;8.820;2023-02-01T08:23:37;97692.81;;;4.14;84.71
70968;BME280;58629;48.808;8.820;2023-02-01T08:26:11;97692.13;;;4.17;84.61
70968;BME280;58629;48.808;8.820;2023-02-01T08:28:38;97692.16;;;4.21;84.34
70968;BME280;58629;48.808;8.820;2023-02-01T08:31:07;97685.69;;;4.37;84.47
70968;BME280;58629;48.808;8.820;2023-02-01T08:33:36;97695.41;;;4.37;84.58
70968;BME280;58629;48.808;8.820;2023-02-01T08:36:11;97693.97;;;4.39;84.64
70968;BME280;58629;48.808;8.820;2023-02-01T08:38:39;97714.19;;;4.39;84.24
70968;BME280;58629;48.808;8.820;2023-02-01T08:41:25;97705.00;;;4.52;83.49
70968;BME280;58629;48.808;8.820;2023-02-01T08:43:53;97701.25;;;4.50;83.67
70968;BME280;58629;48.808;8.820;2023-02-01T08:46:19;97702.69;;;4.47;84.89
70968;BME280;58629;48.808;8.820;2023-02-01T08:48:46;97705.31;;;4.47;84.39
70968;BME280;58629;48.808;8.820;2023-02-01T08:51:14;97705.41;;;4.54;83.78
70968;BME280;58629;48.808;8.820;2023-02-01T08:53:42;97707.19;;;4.47;83.54
70968;BME280;58629;48.808;8.820;2023-02-01T08:56:12;97715.00;;;4.43;85.46
70968;BME280;58629;48.808;8.820;2023-02-01T08:58:37;97719.13;;;4.44;84.22
70968;BME280;58629;48.808;8.820;2023-02-01T09:01:08;97702.34;;;4.49;84.19
70968;BME280;58629;48.808;8.820;2023-02-01T09:03:34;97707.81;;;4.40;84.62
70968;BME280;58629;48.808;8.820;2023-02-01T09:06:02;97717.84;;;4.34;84.62
70968;BME280;58629;48.808;8.820;2023-02-01T09:08:28;97723.44;;;4.33;84.86
70968;BME280;58629;48.808;8.820;2023-02-01T09:10:57;97721.69;;;4.40;84.09
70968;BME280;58629;48.808;8.820;2023-02-01T09:13:25;97724.94;;;4.34;83.96
70968;BME280;58629;48.808;8.820;2023-02-01T09:15:51;97717.03;;;4.30;83.61
70968;BME280;58629;48.808;8.820;2023-02-01T09:18:16;97700.50;;;4.26;83.83
70968;BME280;58629;48.808;8.820;2023-02-01T09:20:42;97711.50;;;4.35;83.28
70968;BME280;58629;48.808;8.820;2023-02-01T09:23:08;97717.09;;;4.34;83.42
70968;BME280;58629;48.808;8.820;2023-02-01T09:25:33;97717.09;;;4.34;83.33
70968;BME280;58629;48.808;8.820;2023-02-01T09:27:58;97733.00;;;4.45;82.37
70968;BME280;58629;48.808;8.820;2023-02-01T09:30:24;97724.25;;;4.37;81.74
70968;BME280;58629;48.808;8.820;2023-02-01T09:32:49;97723.94;;;4.42;81.62
70968;BME280;58629;48.808;8.820;2023-02-01T09:35:15;97726.34;;;4.51;80.36
70968;BME280;58629;48.808;8.820;2023-02-01T09:37:40;97724.94;;;4.57;80.03
70968;BME280;58629;48.808;8.820;2023-02-01T09:40:06;97726.03;;;4.56;80.52
70968;BME280;58629;48.808;8.820;2023-02-01T09:43:00;97746.63;;;4.54;79.59
70968;BME280;58629;48.808;8.820;2023-02-01T09:48:15;97741.19;;;4.66;80.45
70968;BME280;58629;48.808;8.820;2023-02-01T09:50:48;97733.03;;;4.71;80.29
70968;BME280;58629;48.808;8.820;2023-02-01T09:53:32;97743.00;;;4.62;78.86
70968;BME280;58629;48.808;8.820;2023-02-01T09:56:07;97731.03;;;4.64;78.44
70968;BME280;58629;48.808;8.820;2023-02-01T10:01:20;97750.03;;;4.58;80.01
70968;BME280;58629;48.808;8.820;2023-02-01T10:03:48;97752.38;;;4.63;79.82
70968;BME280;58629;48.808;8.820;2023-02-01T10:06:36;97768.06;;;4.59;78.87
70968;BME280;58629;48.808;8.820;2023-02-01T10:17:22;97786.91;;;4.65;78.07
70968;BME280;58629;48.808;8.820;2023-02-01T10:20:03;97780.25;;;4.71;79.35
70968;BME280;58629;48.808;8.820;2023-02-01T10:22:40;97801.19;;;4.67;77.77
70968;BME280;58629;48.808;8.820;2023-02-01T10:27:41;97810.91;;;4.67;77.57
70968;BME280;58629;48.808;8.820;2023-02-01T10:30:24;97810.50;;;4.65;76.92
70968;BME280;58629;48.808;8.820;2023-02-01T10:32:55;97800.69;;;4.62;78.14
70968;BME280;58629;48.808;8.820;2023-02-01T10:35:25;97797.66;;;4.60;78.83
70968;BME280;58629;48.808;8.820;2023-02-01T10:37:52;97803.97;;;4.55;76.68
70968;BME280;58629;48.808;8.820;2023-02-01T10:42:45;97809.22;;;4.55;77.74
70968;BME280;58629;48.808;8.820;2023-02-01T10:45:18;97803.63;;;4.57;77.37
70968;BME280;58629;48.808;8.820;2023-02-01T10:47:46;97793.78;;;4.50;77.35
70968;BME280;58629;48.808;8.820;2023-02-01T10:50:34;97789.34;;;4.54;77.45
70968;BME280;58629;48.808;8.820;2023-02-01T10:53:15;97782.06;;;4.67;77.33
70968;BME280;58629;48.808;8.820;2023-02-01T10:58:28;97788.94;;;4.75;76.71
70968;BME280;58629;48.808;8.820;2023-02-01T11:01:02;97790.78;;;4.74;76.20
70968;BME280;58629;48.808;8.820;2023-02-01T11:03:57;97783.22;;;4.69;75.64
70968;BME280;58629;48.808;8.820;2023-02-01T11:06:38;97776.50;;;4.72;76.37
70968;BME280;58629;48.808;8.820;2023-02-01T11:12:01;97783.91;;;4.89;75.42
70968;BME280;58629;48.808;8.820;2023-02-01T11:14:35;97780.94;;;5.16;75.88
70968;BME280;58629;48.808;8.820;2023-02-01T11:17:21;97774.03;;;5.35;73.67
70968;BME280;58629;48.808;8.820;2023-02-01T11:20:02;97776.59;;;5.31;74.52
70968;BME280;58629;48.808;8.820;2023-02-01T11:22:29;97782.72;;;5.39;74.35
70968;BME280;58629;48.808;8.820;2023-02-01T11:24:55;97766.47;;;5.29;73.66
70968;BME280;58629;48.808;8.820;2023-02-01T11:27:22;97762.34;;;5.28;73.55
70968;BME280;58629;48.808;8.820;2023-02-01T11:29:51;97765.63;;;5.22;73.29
70968;BME280;58629;48.808;8.820;2023-02-01T11:32:20;97758.72;;;5.40;72.83
70968;BME280;58629;48.808;8.820;2023-02-01T11:34:49;97747.16;;;5.45;73.24
70968;BME280;58629;48.808;8.820;2023-02-01T11:37:25;97747.09;;;5.41;71.57
70968;BME280;58629;48.808;8.820;2023-02-01T11:40:00;97745.91;;;5.35;71.58
70968;BME280;58629;48.808;8.820;2023-02-01T11:42:27;97727.69;;;5.19;71.99
70968;BME280;58629;48.808;8.820;2023-02-01T11:45:20;97716.28;;;5.05;71.08
70968;BME280;58629;48.808;8.820;2023-02-01T11:47:45;97724.53;;;5.07;73.27
70968;BME280;58629;48.808;8.820;2023-02-01T11:54:51;97693.94;;;5.18;72.38
70968;BME280;58629;48.808;8.820;2023-02-01T11:59:53;97689.91;;;5.27;71.81
70968;BME280;58629;48.808;8.820;2023-02-01T12:02:37;97674.09;;;5.20;71.78
70968;BME280;58629;48.808;8.820;2023-02-01T12:11:15;97680.41;;;5.16;71.80
70968;BME280;58629;48.808;8.820;2023-02-01T12:14:23;97693.34;;;5.02;72.83
70968;BME280;58629;48.808;8.820;2023-02-01T12:20:21;97698.56;;;4.72;74.88
70968;BME280;58629;48.808;8.820;2023-02-01T12:22:54;97691.84;;;4.75;75.42
70968;BME280;58629;48.808;8.820;2023-02-01T12:36:10;97696.09;;;4.57;77.43
70968;BME280;58629;48.808;8.820;2023-02-01T12:39:31;97694.03;;;4.69;76.49
70968;BME280;58629;48.808;8.820;2023-02-01T12:41:49;97687.22;;;4.65;77.30
70968;BME280;58629;48.808;8.820;2023-02-01T12:44:31;97678.09;;;4.55;78.22
70968;BME280;58629;48.808;8.820;2023-02-01T12:47:04;97665.44;;;4.61;77.06
70968;BME280;58629;48.808;8.820;2023-02-01T12:52:21;97666.44;;;4.79;76.05
70968;BME280;58629;48.808;8.820;2023-02-01T12:54:55;97666.06;;;4.80;77.24
70968;BME280;58629;48.808;8.820;2023-02-01T12:57:32;97673.22;;;4.83;75.77
70968;BME280;58629;48.808;8.820;2023-02-01T13:00:23;97667.53;;;4.78;75.81
70968;BME280;58629;48.808;8.820;2023-02-01T13:03:07;97680.75;;;4.85;76.55
70968;BME280;58629;48.808;8.820;2023-02-01T13:06:22;97678.88;;;4.85;76.23
70968;BME280;58629;48.808;8.820;2023-02-01T13:11:38;97661.47;;;4.74;75.84
70968;BME280;58629;48.808;8.820;2023-02-01T13:16:57;97657.03;;;4.78;76.51
70968;BME280;58629;48.808;8.820;2023-02-01T13:19:29;97653.69;;;4.77;76.88
70968;BME280;58629;48.808;8.820;2023-02-01T13:22:05;97647.84;;;4.91;77.08
70968;BME280;58629;48.808;8.820;2023-02-01T13:27:01;97641.09;;;4.64;80.38
70968;BME280;58629;48.808;8.820;2023-02-01T13:29:28;97625.34;;;4.64;78.80
70968;BME280;58629;48.808;8.820;2023-02-01T13:32:07;97627.19;;;4.60;79.24
70968;BME280;58629;48.808;8.820;2023-02-01T13:34:43;97625.47;;;4.45;79.87
70968;BME280;58629;48.808;8.820;2023-02-01T13:40:44;97630.94;;;4.59;81.92
70968;BME280;58629;48.808;8.820;2023-02-01T13:43:23;97639.84;;;4.54;79.58
70968;BME280;58629;48.808;8.820;2023-02-01T13:45:51;97621.25;;;4.63;79.52
70968;BME280;58629;48.808;8.820;2023-02-01T13:48:41;97621.91;;;4.86;78.21
70968;BME280;58629;48.808;8.820;2023-02-01T13:51:11;97608.09;;;4.89;77.37
70968;BME280;58629;48.808;8.820;2023-02-01T13:53:37;97607.69;;;4.87;76.88
70968;BME280;58629;48.808;8.820;2023-02-01T13:56:17;97602.84;;;4.89;76.50
70968;BME280;58629;48.808;8.820;2023-02-01T13:58:47;97604.31;;;4.86;76.75
70968;BME280;58629;48.808;8.820;2023-02-01T14:03:55;97615.78;;;4.75;76.44
70968;BME280;58629;48.808;8.820;2023-02-01T14:16:39;97595.19;;;5.10;75.81
70968;BME280;58629;48.808;8.820;2023-02-01T14:19:08;97603.56;;;4.89;76.21
70968;BME280;58629;48.808;8.820;2023-02-01T14:21:47;97608.03;;;4.85;75.72
70968;BME280;58629;48.808;8.820;2023-02-01T14:24:23;97608.94;;;4.67;76.17
70968;BME280;58629;48.808;8.820;2023-02-01T14:26:51;97624.22;;;4.61;77.59
70968;BME280;58629;48.808;8.820;2023-02-01T14:34:29;97630.78;;;4.48;79.90
70968;BME280;58629;48.808;8.820;2023-02-01T14:36:58;97638.31;;;4.50;80.23
70968;BME280;58629;48.808;8.820;2023-02-01T14:39:28;97629.97;;;4.44;79.42
70968;BME280;58629;48.808;8.820;2023-02-01T14:42:01;97622.84;;;4.45;79.64
70968;BME280;58629;48.808;8.820;2023-02-01T14:44:29;97633.06;;;4.50;78.24
70968;BME280;58629;48.808;8.820;2023-02-01T14:52:58;97655.84;;;4.46;77.15
70968;BME280;58629;48.808;8.820;2023-02-01T14:55:38;97644.69;;;4.52;77.21
70968;BME280;58629;48.808;8.820;2023-02-01T14:58:13;97653.97;;;4.46;77.53
70968;BME280;58629;48.808;8.820;2023-02-01T15:00:47;97633.34;;;4.45;77.23
70968;BME280;58629;48.808;8.820;2023-02-01T15:08:45;97646.00;;;4.65;76.74
70968;BME280;58629;48.808;8.820;2023-02-01T15:11:15;97640.59;;;4.81;76.74
70968;BME280;58629;48.808;8.820;2023-02-01T15:13:48;97628.75;;;4.94;75.51
70968;BME280;58629;48.808;8.820;2023-02-01T15:16:16;97631.38;;;4.94;73.79
70968;BME280;58629;48.808;8.820;2023-02-01T15:18:43;97645.34;;;5.01;75.29
70968;BME280;58629;48.808;8.820;2023-02-01T15:21:22;97636.03;;;5.07;75.04
70968;BME280;58629;48.808;8.820;2023-02-01T15:23:48;97636.00;;;5.04;73.49
70968;BME280;58629;48.808;8.820;2023-02-01T15:26:30;97629.19;;;4.99;73.66